Aviation Digital Data Service (ADDS)

Output produced by TAFs form (0123 UTC 27 April 2017)
found at http://www.aviationweather.gov/adds/tafs/
 
METAR text: RJSR 270100Z 25013KT 9999 FEW015 SCT030 BKN040 12/05 Q1004
Conditions at: RJSR (ODATE-NOSHIRO , JP) observed 0100 UTC 27 April 2017
Temperature: 12.0°C (54°F)
Dewpoint: 5.0°C (41°F) [RH = 62%]
Pressure (altimeter): 29.65 inches Hg (1004.0 mb)
Winds: from the WSW (250 degrees) at 15 MPH (13 knots; 6.8 m/s)
Visibility: 6 or more miles (10+ km)
Ceiling: 4000 feet AGL
Clouds: few clouds at 1500 feet AGL
scattered clouds at 3000 feet AGL
broken clouds at 4000 feet AGL
Weather: no significant weather observed at this time